Time;durP1;ratioP1;P1;durP2;ratioP2;P2;SDS_P1;SDS_P2;PMS_P1;PMS_P2;Temp;Humidity;BMP_temperature;BMP_pressure;BME280_temperature;BME280_humidity;BME280_pressure;Samples;Min_cycle;Max_cycle;Signal;HPM_P1;HPM_P2
2022/12/13 00:00:39;;;;;;;8.05;4.03;;;1.30;99.90;;;;;;5080527;28;20103;-76
2022/12/13 00:03:06;;;;;;;9.02;4.35;;;1.30;99.90;;;;;;5098289;28;20028;-75
2022/12/13 00:05:32;;;;;;;7.75;4.03;;;1.20;99.90;;;;;;5098134;28;20031;-75
2022/12/13 00:07:59;;;;;;;7.78;3.97;;;1.30;99.90;;;;;;5098719;28;20020;-75
2022/12/13 00:10:24;;;;;;;7.57;3.97;;;1.20;99.90;;;;;;5079759;28;20050;-75
2022/12/13 00:12:50;;;;;;;8.15;3.60;;;1.20;99.90;;;;;;5079973;28;20518;-75
2022/12/13 00:15:16;;;;;;;7.63;3.85;;;1.20;99.90;;;;;;5080566;28;20032;-75
2022/12/13 00:17:41;;;;;;;7.60;3.88;;;1.20;99.90;;;;;;5098420;28;20028;-75
2022/12/13 00:20:07;;;;;;;7.18;3.90;;;1.20;99.90;;;;;;5097315;28;20032;-75
2022/12/13 00:22:33;;;;;;;7.82;4.40;;;1.20;99.90;;;;;;5099361;28;20568;-75
2022/12/13 00:24:59;;;;;;;5.78;3.58;;;1.20;99.90;;;;;;5098886;28;20024;-76
2022/12/13 00:27:24;;;;;;;7.35;3.75;;;1.10;99.90;;;;;;5080396;28;20103;-75
2022/12/13 00:29:50;;;;;;;7.57;3.88;;;1.10;99.90;;;;;;5098697;28;20020;-75
2022/12/13 00:32:16;;;;;;;7.95;4.50;;;1.10;99.90;;;;;;5080233;28;20511;-75
2022/12/13 00:34:41;;;;;;;6.55;3.60;;;1.10;99.90;;;;;;5098540;28;20500;-75
2022/12/13 00:37:07;;;;;;;5.97;3.40;;;1.00;99.90;;;;;;5080204;28;20020;-75
2022/12/13 00:39:33;;;;;;;9.80;4.65;;;1.00;99.90;;;;;;5098635;28;20031;-75
2022/12/13 00:41:58;;;;;;;7.97;4.55;;;0.90;99.90;;;;;;5098492;28;20059;-75
2022/12/13 00:44:24;;;;;;;6.57;4.05;;;0.90;99.90;;;;;;5097812;28;20027;-75
2022/12/13 00:46:53;;;;;;;8.10;4.25;;;1.00;99.90;;;;;;5111199;28;20047;-75
2022/12/13 00:49:19;;;;;;;7.95;3.83;;;1.00;99.90;;;;;;5098321;28;20020;-74
2022/12/13 00:51:47;;;;;;;9.68;4.90;;;1.00;99.90;;;;;;5080172;28;20024;-74
2022/12/13 00:54:12;;;;;;;8.57;4.53;;;1.00;99.90;;;;;;5098437;28;20028;-75
2022/12/13 00:56:38;;;;;;;7.82;3.83;;;1.10;99.90;;;;;;5098172;28;20396;-75
2022/12/13 00:59:04;;;;;;;7.57;4.35;;;1.10;99.90;;;;;;5098088;28;20047;-75
2022/12/13 01:01:33;;;;;;;8.45;4.10;;;1.10;99.90;;;;;;5079669;28;20023;-74
2022/12/13 01:04:00;;;;;;;7.70;3.75;;;1.00;99.90;;;;;;5097470;28;20415;-76
2022/12/13 01:06:36;;;;;;;8.40;4.68;;;1.00;99.90;;;;;;5097935;28;20487;-74
2022/12/13 01:09:02;;;;;;;8.00;4.10;;;1.00;99.90;;;;;;5098019;28;20035;-74
2022/12/13 01:11:28;;;;;;;6.65;4.20;;;0.90;99.90;;;;;;5079613;28;20438;-76
2022/12/13 01:13:53;;;;;;;7.85;4.13;;;1.00;99.90;;;;;;5097828;28;20108;-74
2022/12/13 01:16:19;;;;;;;7.82;4.13;;;1.00;99.90;;;;;;5097756;28;20096;-74
2022/12/13 01:18:45;;;;;;;8.70;4.63;;;1.00;99.90;;;;;;5097367;28;20056;-75
2022/12/13 01:21:14;;;;;;;8.70;4.75;;;0.90;99.90;;;;;;5097726;28;20028;-75
2022/12/13 01:23:40;;;;;;;8.02;4.47;;;1.00;99.90;;;;;;5097182;28;20023;-74
2022/12/13 01:26:09;;;;;;;8.57;4.60;;;1.00;99.90;;;;;;5097814;28;20097;-75
2022/12/13 01:28:35;;;;;;;8.43;4.38;;;1.00;99.90;;;;;;5084264;28;20557;-74
2022/12/13 01:31:04;;;;;;;11.18;5.07;;;1.00;99.90;;;;;;5097430;28;20024;-74
2022/12/13 01:33:30;;;;;;;8.70;4.60;;;1.00;99.90;;;;;;5097203;28;20024;-74
2022/12/13 01:36:00;;;;;;;7.90;4.10;;;0.90;99.90;;;;;;5097129;28;20052;-74
2022/12/13 01:38:26;;;;;;;9.68;5.03;;;0.90;99.90;;;;;;5097348;28;20020;-74
2022/12/13 01:40:58;;;;;;;10.80;4.78;;;0.90;99.90;;;;;;5096900;28;20557;-75
2022/12/13 01:43:40;;;;;;;8.98;4.68;;;0.80;99.90;;;;;;5097172;28;20056;-75
2022/12/13 01:46:06;;;;;;;10.20;5.10;;;0.80;99.90;;;;;;5068148;28;20042;-74
2022/12/13 01:48:38;;;;;;;9.35;5.10;;;0.80;99.90;;;;;;5096569;28;20108;-74
2022/12/13 01:51:06;;;;;;;7.05;4.38;;;0.80;99.90;;;;;;5097368;28;20012;-74
2022/12/13 01:53:35;;;;;;;7.72;5.03;;;0.80;99.90;;;;;;5096980;28;20035;-74
2022/12/13 01:56:06;;;;;;;8.88;4.65;;;0.70;99.90;;;;;;5097347;28;20024;-74
2022/12/13 01:58:33;;;;;;;10.02;4.80;;;0.80;99.90;;;;;;5096670;28;20044;-75
2022/12/13 02:01:00;;;;;;;10.82;5.13;;;0.80;99.90;;;;;;5097094;28;20388;-74
2022/12/13 02:03:26;;;;;;;8.93;4.75;;;0.70;99.90;;;;;;5078641;28;20100;-74
2022/12/13 02:06:09;;;;;;;9.13;4.88;;;0.70;99.90;;;;;;5096766;28;20492;-74
2022/12/13 02:08:37;;;;;;;8.60;4.57;;;0.70;99.90;;;;;;5096689;28;20024;-74
2022/12/13 02:11:04;;;;;;;7.72;4.30;;;0.70;99.90;;;;;;5097177;28;20449;-75
2022/12/13 02:13:29;;;;;;;10.77;4.75;;;0.70;99.90;;;;;;5078866;28;20523;-76
2022/12/13 02:16:04;;;;;;;8.40;4.30;;;0.70;99.90;;;;;;5114848;28;20028;-75
2022/12/13 02:18:57;;;;;;;9.45;4.75;;;0.70;99.90;;;;;;5100300;28;20058;-75
2022/12/13 02:21:42;;;;;;;7.30;3.78;;;0.70;99.90;;;;;;5095229;28;20546;-75
2022/12/13 02:24:14;;;;;;;7.97;4.13;;;0.60;99.90;;;;;;5082395;28;20028;-75
2022/12/13 02:26:57;;;;;;;9.65;4.57;;;0.60;99.90;;;;;;5101026;28;20020;-75
2022/12/13 02:29:37;;;;;;;7.90;4.45;;;0.70;99.90;;;;;;5100851;28;20395;-74
2022/12/13 02:32:11;;;;;;;8.32;4.20;;;0.60;99.90;;;;;;5089250;28;20499;-74
2022/12/13 02:34:43;;;;;;;9.40;4.35;;;0.60;99.90;;;;;;5081984;28;20032;-74
2022/12/13 02:37:51;;;;;;;8.88;4.80;;;0.60;99.90;;;;;;5100794;28;20078;-74
2022/12/13 02:40:27;;;;;;;8.30;4.25;;;0.60;99.90;;;;;;5100827;28;20027;-74
2022/12/13 02:43:15;;;;;;;8.77;4.07;;;0.60;99.90;;;;;;5081954;28;20024;-74
2022/12/13 02:45:51;;;;;;;8.75;4.22;;;0.70;99.90;;;;;;5100384;28;20020;-74
2022/12/13 02:48:24;;;;;;;7.25;3.88;;;0.70;99.90;;;;;;5099753;28;20028;-74
2022/12/13 02:50:52;;;;;;;7.68;3.85;;;0.70;99.90;;;;;;5100540;28;20024;-75
2022/12/13 02:53:20;;;;;;;8.05;3.80;;;0.80;99.90;;;;;;5082265;28;20418;-75
2022/12/13 02:55:46;;;;;;;6.75;3.40;;;0.80;99.90;;;;;;5100077;28;20112;-74
2022/12/13 02:58:14;;;;;;;6.57;3.40;;;0.80;99.90;;;;;;5081681;28;20436;-74
2022/12/13 03:00:40;;;;;;;8.65;4.47;;;0.80;99.90;;;;;;5098382;28;20068;-74
2022/12/13 03:03:24;;;;;;;8.15;3.95;;;0.80;99.90;;;;;;5097937;28;20064;-74
2022/12/13 03:06:29;;;;;;;8.55;4.82;;;0.80;99.90;;;;;;5099526;28;20028;-75
2022/12/13 03:09:33;;;;;;;8.10;4.13;;;0.80;99.90;;;;;;5098854;28;20016;-73
2022/12/13 03:15:58;;;;;;;8.23;4.25;;;0.80;99.90;;;;;;5097319;28;20031;-74
2022/12/13 03:18:27;;;;;;;7.10;3.70;;;0.80;99.90;;;;;;5087823;28;20043;-74
2022/12/13 03:20:58;;;;;;;9.57;4.55;;;0.90;99.90;;;;;;5099289;28;20020;-75
2022/12/13 03:23:25;;;;;;;8.25;4.85;;;0.90;99.90;;;;;;5098945;28;20028;-75
2022/12/13 03:25:58;;;;;;;9.10;4.82;;;0.90;99.90;;;;;;5098593;28;20031;-75
2022/12/13 03:28:24;;;;;;;7.53;3.95;;;0.90;99.90;;;;;;5098445;28;20024;-74
2022/12/13 03:30:49;;;;;;;8.52;5.15;;;0.90;99.90;;;;;;5099550;28;20035;-75
2022/12/13 03:33:15;;;;;;;9.63;5.03;;;0.80;99.90;;;;;;5099505;28;20476;-74
2022/12/13 03:35:42;;;;;;;7.63;4.63;;;0.80;99.90;;;;;;5099315;28;20548;-75
2022/12/13 03:38:09;;;;;;;7.55;3.65;;;0.80;99.90;;;;;;5080165;28;20077;-75
2022/12/13 03:40:35;;;;;;;8.50;5.07;;;0.80;99.90;;;;;;5099570;28;20568;-75
2022/12/13 03:43:01;;;;;;;9.10;4.40;;;0.80;99.90;;;;;;5099422;28;20036;-75
2022/12/13 03:45:27;;;;;;;8.40;4.20;;;0.80;99.90;;;;;;5099571;28;20028;-75
2022/12/13 03:47:52;;;;;;;8.27;4.22;;;0.80;99.90;;;;;;5080772;28;20031;-75
2022/12/13 03:50:18;;;;;;;8.50;3.97;;;0.80;99.90;;;;;;5081497;28;20043;-75
2022/12/13 03:52:46;;;;;;;8.45;4.38;;;0.80;99.90;;;;;;5085439;28;20033;-76
2022/12/13 03:55:12;;;;;;;8.02;4.30;;;0.80;99.90;;;;;;5098989;28;20070;-74
2022/12/13 03:57:38;;;;;;;6.85;3.88;;;0.90;99.90;;;;;;5099153;28;20056;-74
2022/12/13 04:00:04;;;;;;;8.02;4.43;;;0.90;99.90;;;;;;5099027;28;20048;-74
2022/12/13 04:02:30;;;;;;;7.57;4.25;;;0.90;99.90;;;;;;5080618;28;20028;-74
2022/12/13 04:04:55;;;;;;;7.75;4.40;;;0.90;99.90;;;;;;5098993;28;20515;-74
2022/12/13 04:07:21;;;;;;;7.53;4.18;;;0.90;99.90;;;;;;5098765;28;20028;-74
2022/12/13 04:09:46;;;;;;;8.20;4.80;;;0.90;99.90;;;;;;5098870;28;20032;-74
2022/12/13 04:14:56;;;;;;;8.43;4.63;;;0.80;99.90;;;;;;5098742;28;20046;-74
2022/12/13 04:17:22;;;;;;;9.02;4.68;;;0.90;99.90;;;;;;5098542;28;20064;-74
2022/12/13 04:19:48;;;;;;;7.32;4.40;;;0.80;99.90;;;;;;5098821;28;20056;-74
2022/12/13 04:22:13;;;;;;;7.95;4.57;;;0.90;99.90;;;;;;5098651;28;20111;-74
2022/12/13 04:24:39;;;;;;;6.80;3.80;;;0.80;99.90;;;;;;5098459;28;20110;-74
2022/12/13 04:27:04;;;;;;;8.38;4.82;;;0.80;99.90;;;;;;5098494;28;20044;-74
2022/12/13 04:29:30;;;;;;;7.65;4.82;;;0.80;99.90;;;;;;5098401;28;20035;-75
2022/12/13 04:31:56;;;;;;;10.25;5.50;;;0.80;99.90;;;;;;5080476;28;20077;-75
2022/12/13 04:34:21;;;;;;;8.43;5.07;;;0.80;99.90;;;;;;5098450;28;20055;-75
2022/12/13 04:36:47;;;;;;;8.40;4.32;;;0.80;99.90;;;;;;5080598;28;20419;-75
2022/12/13 04:39:13;;;;;;;9.02;4.95;;;0.80;99.90;;;;;;5079806;28;20034;-74
2022/12/13 04:41:39;;;;;;;7.68;4.07;;;0.90;99.90;;;;;;5098419;28;20028;-74
2022/12/13 04:44:07;;;;;;;8.90;4.60;;;0.90;99.90;;;;;;5098395;28;20115;-74
2022/12/13 04:46:33;;;;;;;7.47;4.97;;;0.90;99.90;;;;;;5079928;28;20028;-74
2022/12/13 04:48:59;;;;;;;8.20;4.82;;;0.90;99.90;;;;;;5098256;28;20438;-74
2022/12/13 04:51:25;;;;;;;7.15;4.30;;;0.90;99.90;;;;;;5098197;28;20056;-73
2022/12/13 04:53:51;;;;;;;8.50;4.82;;;0.80;99.90;;;;;;5098367;28;20024;-73
2022/12/13 04:56:17;;;;;;;9.27;5.05;;;0.90;99.90;;;;;;5098157;28;20049;-73
2022/12/13 04:58:42;;;;;;;7.97;4.10;;;0.90;99.90;;;;;;5098119;28;20575;-73
2022/12/13 05:01:09;;;;;;;8.73;4.55;;;0.90;99.90;;;;;;5097890;28;20107;-73
2022/12/13 05:03:37;;;;;;;7.85;4.22;;;0.90;99.90;;;;;;5079073;28;20020;-74
2022/12/13 05:06:07;;;;;;;8.13;4.65;;;0.90;99.90;;;;;;5079820;28;20058;-73
2022/12/13 05:08:33;;;;;;;9.10;5.05;;;0.90;99.90;;;;;;5097849;28;20035;-73
2022/12/13 05:10:58;;;;;;;7.57;4.65;;;0.80;99.90;;;;;;5097717;28;20032;-73
2022/12/13 05:13:24;;;;;;;8.63;5.03;;;0.80;99.90;;;;;;5079031;28;20039;-75
2022/12/13 05:15:57;;;;;;;8.90;4.90;;;0.80;99.90;;;;;;5075872;28;20055;-74
2022/12/13 05:18:22;;;;;;;7.30;4.30;;;0.70;99.90;;;;;;5097187;28;20059;-74
2022/12/13 05:20:49;;;;;;;7.88;4.20;;;0.70;99.90;;;;;;5079195;28;20039;-75
2022/12/13 05:23:16;;;;;;;8.40;4.90;;;0.80;99.90;;;;;;5097895;28;20028;-75
2022/12/13 05:25:42;;;;;;;7.85;4.07;;;0.80;99.90;;;;;;5079462;28;20035;-75
2022/12/13 05:28:07;;;;;;;7.85;4.25;;;0.80;99.90;;;;;;5097451;28;20080;-75
2022/12/13 05:30:33;;;;;;;8.07;4.18;;;0.80;99.90;;;;;;5097396;28;20032;-75
2022/12/13 05:32:59;;;;;;;8.27;4.78;;;0.70;99.90;;;;;;5078404;28;20064;-75
2022/12/13 05:35:24;;;;;;;9.52;4.80;;;0.70;99.90;;;;;;5096945;28;20031;-75
2022/12/13 05:37:53;;;;;;;8.57;4.85;;;0.70;99.90;;;;;;5096995;28;20105;-75
2022/12/13 05:40:19;;;;;;;9.50;4.43;;;0.60;99.90;;;;;;5079529;28;20024;-75
2022/12/13 05:42:44;;;;;;;7.22;4.15;;;0.70;99.90;;;;;;5097434;28;20024;-75
2022/12/13 05:45:11;;;;;;;7.88;4.40;;;0.70;99.90;;;;;;5096489;28;20028;-75
2022/12/13 05:47:37;;;;;;;9.40;4.85;;;0.70;99.90;;;;;;5097226;28;20052;-75
2022/12/13 05:50:03;;;;;;;8.70;4.55;;;0.70;99.90;;;;;;5078900;28;20864;-75
2022/12/13 05:52:29;;;;;;;7.72;4.25;;;0.70;99.90;;;;;;5078813;28;20032;-75
2022/12/13 05:54:55;;;;;;;8.05;4.68;;;0.60;99.90;;;;;;5097217;28;20032;-74
2022/12/13 05:57:21;;;;;;;8.07;4.47;;;0.60;99.90;;;;;;5096888;28;20032;-75
2022/12/13 05:59:47;;;;;;;9.15;5.30;;;0.60;99.90;;;;;;5061380;28;20131;-75
2022/12/13 06:02:13;;;;;;;8.55;5.00;;;0.60;99.90;;;;;;5056169;28;20113;-75
2022/12/13 06:04:38;;;;;;;8.15;4.28;;;0.50;99.90;;;;;;5056738;28;20033;-75
2022/12/13 06:07:04;;;;;;;7.28;4.18;;;0.60;99.90;;;;;;5055711;28;20481;-75
2022/12/13 06:09:30;;;;;;;7.82;4.50;;;0.50;99.90;;;;;;5054789;28;20040;-75
2022/12/13 06:11:55;;;;;;;9.13;4.80;;;0.50;99.90;;;;;;5056469;28;20067;-75
2022/12/13 06:14:21;;;;;;;7.95;4.65;;;0.60;99.90;;;;;;5056784;28;20041;-74
2022/12/13 06:16:47;;;;;;;9.93;4.55;;;0.60;99.90;;;;;;5055264;28;20082;-75
2022/12/13 06:19:12;;;;;;;8.57;4.57;;;0.60;99.90;;;;;;5055820;28;20086;-74
2022/12/13 06:21:38;;;;;;;7.30;3.97;;;0.60;99.90;;;;;;5055155;28;20124;-75
2022/12/13 06:24:04;;;;;;;7.22;4.20;;;0.60;99.90;;;;;;5056374;28;20082;-74
2022/12/13 06:26:30;;;;;;;9.20;4.88;;;0.60;99.90;;;;;;5055531;28;20025;-75
2022/12/13 06:28:55;;;;;;;8.50;4.53;;;0.60;99.90;;;;;;5048920;28;20504;-74
2022/12/13 06:31:21;;;;;;;8.85;4.93;;;0.60;99.90;;;;;;5056175;28;20025;-75
2022/12/13 06:33:47;;;;;;;9.57;4.82;;;0.50;99.90;;;;;;5054663;28;20029;-74
2022/12/13 06:36:12;;;;;;;8.88;5.07;;;0.50;99.90;;;;;;5056567;28;20033;-75
2022/12/13 06:38:38;;;;;;;8.93;4.75;;;0.40;99.90;;;;;;5054211;28;20447;-74
2022/12/13 06:41:15;;;;;;;8.40;4.65;;;0.40;99.90;;;;;;5058946;28;20036;-75
2022/12/13 06:43:43;;;;;;;9.80;5.43;;;0.40;99.90;;;;;;5055165;28;20100;-75
2022/12/13 06:46:08;;;;;;;10.13;5.75;;;0.40;99.90;;;;;;5055048;28;20520;-75
2022/12/13 06:48:34;;;;;;;7.85;4.82;;;0.40;99.90;;;;;;5056074;28;20029;-74
2022/12/13 06:51:04;;;;;;;9.02;5.00;;;0.40;99.90;;;;;;5056085;28;20021;-74
2022/12/13 06:53:30;;;;;;;7.50;4.35;;;0.30;99.90;;;;;;5055601;28;20036;-74
2022/12/13 06:55:56;;;;;;;7.43;4.15;;;0.40;99.90;;;;;;5055272;28;20053;-75
2022/12/13 06:58:23;;;;;;;8.52;4.70;;;0.30;99.90;;;;;;5056417;28;20120;-74
2022/12/13 07:00:49;;;;;;;9.50;4.60;;;0.30;99.90;;;;;;5095824;28;20103;-74
2022/12/13 07:03:14;;;;;;;11.15;5.22;;;0.30;99.90;;;;;;5099387;28;20071;-75
2022/12/13 07:05:40;;;;;;;9.10;4.60;;;0.30;99.90;;;;;;5099099;28;20028;-74
2022/12/13 07:08:06;;;;;;;8.82;4.78;;;0.30;99.90;;;;;;5099553;28;20032;-75
2022/12/13 07:10:32;;;;;;;9.65;5.07;;;0.40;99.90;;;;;;5084176;28;20027;-75
2022/12/13 07:12:58;;;;;;;8.57;4.35;;;0.40;99.90;;;;;;5090463;28;20567;-75
2022/12/13 07:15:23;;;;;;;8.18;4.63;;;0.50;99.90;;;;;;5101010;28;20051;-75
2022/12/13 07:17:50;;;;;;;7.70;4.35;;;0.50;99.90;;;;;;5080960;28;20024;-74
2022/12/13 07:20:16;;;;;;;8.60;4.45;;;0.50;99.90;;;;;;5099419;28;20024;-74
2022/12/13 07:22:41;;;;;;;9.02;5.20;;;0.50;99.90;;;;;;5099608;28;20028;-74
2022/12/13 07:25:08;;;;;;;9.05;5.03;;;0.50;99.90;;;;;;5099954;28;20468;-74
2022/12/13 07:27:34;;;;;;;8.27;4.45;;;0.40;99.90;;;;;;5102222;28;20029;-74
2022/12/13 07:30:00;;;;;;;9.48;5.15;;;0.50;99.90;;;;;;5083737;28;20019;-74
2022/12/13 07:32:26;;;;;;;9.77;5.50;;;0.40;99.90;;;;;;5099941;28;20035;-74
2022/12/13 07:34:51;;;;;;;9.63;5.35;;;0.50;99.90;;;;;;5110105;28;20488;-75
2022/12/13 07:37:17;;;;;;;7.90;4.43;;;0.40;99.90;;;;;;5099255;28;20396;-74
2022/12/13 07:39:43;;;;;;;8.50;5.22;;;0.40;99.90;;;;;;5099555;28;20031;-75
2022/12/13 07:42:08;;;;;;;8.10;4.35;;;0.40;99.90;;;;;;5105565;28;20024;-76
2022/12/13 07:44:34;;;;;;;10.57;5.40;;;0.40;99.90;;;;;;5108536;28;20028;-75
2022/12/13 07:47:00;;;;;;;8.52;4.68;;;0.40;99.90;;;;;;5080341;28;20107;-75
2022/12/13 07:49:25;;;;;;;8.02;4.10;;;0.40;99.90;;;;;;5099114;28;20027;-75
2022/12/13 07:51:51;;;;;;;10.48;5.10;;;0.40;99.90;;;;;;5096794;28;20389;-75
2022/12/13 07:54:17;;;;;;;7.90;4.45;;;0.40;99.90;;;;;;5097530;28;20028;-73
2022/12/13 07:56:43;;;;;;;7.63;3.92;;;0.40;99.90;;;;;;5098292;28;20063;-73
2022/12/13 07:59:09;;;;;;;7.72;4.40;;;0.40;99.90;;;;;;5099012;28;20044;-72
2022/12/13 08:01:35;;;;;;;8.57;5.28;;;0.50;99.90;;;;;;5098391;28;20480;-73
2022/12/13 08:04:04;;;;;;;8.45;4.60;;;0.50;99.90;;;;;;5098098;28;20082;-73
2022/12/13 08:06:35;;;;;;;8.63;3.95;;;0.50;99.90;;;;;;5097750;28;20024;-73
2022/12/13 08:09:00;;;;;;;8.90;4.93;;;0.50;99.90;;;;;;5080169;28;20050;-74
2022/12/13 08:11:26;;;;;;;9.15;5.30;;;0.50;99.90;;;;;;5079644;28;20484;-74
2022/12/13 08:13:55;;;;;;;9.13;4.88;;;0.60;99.90;;;;;;5097198;28;20032;-75
2022/12/13 08:16:20;;;;;;;9.52;5.20;;;0.60;99.90;;;;;;5098363;28;20028;-75
2022/12/13 08:18:46;;;;;;;7.63;4.85;;;0.70;99.90;;;;;;5080107;28;20074;-75
2022/12/13 08:21:12;;;;;;;8.20;4.75;;;0.70;99.90;;;;;;5101969;28;20080;-74
2022/12/13 08:23:38;;;;;;;8.35;4.65;;;0.70;99.90;;;;;;5096628;28;20511;-74
2022/12/13 08:26:05;;;;;;;9.43;5.10;;;0.70;99.90;;;;;;5098346;28;20043;-75
2022/12/13 08:28:32;;;;;;;10.20;5.85;;;0.70;99.90;;;;;;5080016;28;20024;-75
2022/12/13 08:31:06;;;;;;;11.60;5.97;;;0.60;99.90;;;;;;5079116;28;20032;-74
2022/12/13 08:33:35;;;;;;;11.02;5.88;;;0.60;99.90;;;;;;5097847;28;20035;-75
2022/12/13 08:36:09;;;;;;;10.48;5.18;;;0.60;99.90;;;;;;5079153;28;20051;-74
2022/12/13 08:38:34;;;;;;;9.35;5.15;;;0.60;99.90;;;;;;5097797;28;20028;-69
2022/12/13 08:41:00;;;;;;;9.68;5.65;;;0.70;99.90;;;;;;5096539;28;20502;-69
2022/12/13 08:43:26;;;;;;;8.70;5.22;;;0.80;99.90;;;;;;5079444;28;20503;-68
2022/12/13 08:45:51;;;;;;;10.50;5.47;;;0.80;99.90;;;;;;5097115;28;20392;-68
2022/12/13 08:48:17;;;;;;;9.80;5.53;;;0.90;99.90;;;;;;5095275;28;20157;-68
2022/12/13 08:50:42;;;;;;;10.07;5.30;;;0.90;99.90;;;;;;5096939;28;20024;-68
2022/12/13 08:53:08;;;;;;;10.18;5.85;;;0.90;99.90;;;;;;5097008;28;20024;-69
2022/12/13 08:55:35;;;;;;;11.15;5.68;;;1.00;99.90;;;;;;5097195;28;20076;-68
2022/12/13 08:58:07;;;;;;;9.10;4.65;;;1.00;99.90;;;;;;5099714;28;20525;-68
2022/12/13 09:00:33;;;;;;;9.80;5.22;;;1.00;99.90;;;;;;5077988;28;20048;-68
2022/12/13 09:02:58;;;;;;;9.52;5.18;;;1.10;99.90;;;;;;5096729;28;20412;-68
2022/12/13 09:05:24;;;;;;;9.75;5.10;;;1.20;99.90;;;;;;5095474;28;20028;-70
2022/12/13 09:07:54;;;;;;;9.48;5.35;;;1.20;99.90;;;;;;5078988;28;20032;-70
2022/12/13 09:10:19;;;;;;;9.48;5.13;;;1.20;99.90;;;;;;5079298;28;20043;-69
2022/12/13 09:12:45;;;;;;;8.73;4.95;;;1.20;99.90;;;;;;5079097;28;20419;-68
2022/12/13 09:15:11;;;;;;;7.53;4.28;;;1.30;99.90;;;;;;5102206;28;20042;-69
2022/12/13 09:17:37;;;;;;;9.43;4.97;;;1.30;99.90;;;;;;5097217;28;20028;-68
2022/12/13 09:20:04;;;;;;;9.55;5.10;;;1.30;99.90;;;;;;5097104;28;20077;-68
2022/12/13 09:22:29;;;;;;;7.57;4.45;;;1.30;99.90;;;;;;5096966;28;20031;-68
2022/12/13 09:24:55;;;;;;;8.73;4.80;;;1.30;99.90;;;;;;5096711;28;20038;-68
2022/12/13 09:27:20;;;;;;;9.10;5.22;;;1.30;99.90;;;;;;5078768;28;20498;-68
2022/12/13 09:29:46;;;;;;;10.23;5.30;;;1.30;99.90;;;;;;5079165;28;20480;-68
2022/12/13 09:32:12;;;;;;;8.40;5.18;;;1.30;99.90;;;;;;5096576;28;20032;-68
2022/12/13 09:34:37;;;;;;;8.50;4.97;;;1.30;99.90;;;;;;5097335;28;20395;-70
2022/12/13 09:37:03;;;;;;;11.43;5.32;;;1.30;99.90;;;;;;5097204;28;20035;-71
2022/12/13 09:39:29;;;;;;;10.30;5.50;;;1.40;99.90;;;;;;5097267;28;20024;-69
2022/12/13 09:41:58;;;;;;;7.13;4.28;;;1.40;99.90;;;;;;5078966;28;20028;-75
2022/12/13 09:44:28;;;;;;;10.68;5.75;;;1.40;99.90;;;;;;5075818;28;20028;-76
2022/12/13 09:46:56;;;;;;;10.32;5.10;;;1.50;99.90;;;;;;5093732;28;20016;-75
2022/12/13 09:49:36;;;;;;;10.98;5.80;;;1.60;99.90;;;;;;5083099;28;20020;-72
2022/12/13 09:52:05;;;;;;;9.02;4.82;;;1.60;99.90;;;;;;5097191;28;20112;-72
2022/12/13 09:54:32;;;;;;;9.82;5.22;;;1.60;99.90;;;;;;5095297;28;20020;-70
2022/12/13 09:56:57;;;;;;;9.40;4.53;;;1.70;99.90;;;;;;5075041;28;20044;-71
2022/12/13 09:59:34;;;;;;;7.70;4.47;;;1.70;99.90;;;;;;5071913;28;20515;-71
2022/12/13 10:02:16;;;;;;;9.13;4.60;;;1.70;99.90;;;;;;5089272;28;20028;-72
2022/12/13 10:04:42;;;;;;;9.13;4.90;;;1.60;99.90;;;;;;5091319;28;20066;-72
2022/12/13 10:07:19;;;;;;;8.82;4.82;;;1.70;99.90;;;;;;5093817;28;20031;-72
2022/12/13 10:09:44;;;;;;;11.27;5.75;;;1.70;99.90;;;;;;5092994;28;20016;-73
2022/12/13 10:12:14;;;;;;;9.15;4.85;;;1.70;99.90;;;;;;5093816;28;20046;-73
2022/12/13 10:14:44;;;;;;;7.60;4.88;;;1.80;99.90;;;;;;5093716;28;20020;-73
2022/12/13 10:17:16;;;;;;;8.13;5.28;;;1.80;99.90;;;;;;5094017;28;20040;-73
2022/12/13 10:19:50;;;;;;;9.27;4.65;;;1.70;99.90;;;;;;5094634;28;20078;-73
2022/12/13 10:22:18;;;;;;;9.95;4.88;;;1.70;99.90;;;;;;5075761;28;20024;-73
2022/12/13 10:25:02;;;;;;;8.57;5.40;;;1.70;99.90;;;;;;5075614;28;20028;-73
2022/12/13 10:27:43;;;;;;;7.65;4.43;;;1.60;99.90;;;;;;5093321;28;20023;-72
2022/12/13 10:30:11;;;;;;;9.65;5.15;;;1.70;99.90;;;;;;5094065;28;20484;-72
2022/12/13 10:32:51;;;;;;;7.72;4.60;;;1.60;99.90;;;;;;5094661;28;20024;-71
2022/12/13 10:35:38;;;;;;;9.02;4.60;;;1.70;99.90;;;;;;5095310;28;20035;-72
2022/12/13 10:38:06;;;;;;;8.27;4.85;;;1.70;99.90;;;;;;5096571;28;20024;-73
2022/12/13 10:40:39;;;;;;;9.00;5.05;;;1.70;99.90;;;;;;5080785;28;20048;-73
2022/12/13 10:43:21;;;;;;;7.80;4.53;;;1.70;99.90;;;;;;5098655;28;20031;-74
2022/12/13 10:45:55;;;;;;;8.90;5.03;;;1.80;99.90;;;;;;5081927;28;20762;-75
2022/12/13 10:48:47;;;;;;;9.57;4.85;;;1.80;99.90;;;;;;5083300;28;20116;-75
2022/12/13 10:51:16;;;;;;;8.80;4.53;;;1.80;99.90;;;;;;5086481;28;20036;-75
2022/12/13 10:53:53;;;;;;;9.70;5.05;;;1.90;99.90;;;;;;5099609;28;20023;-74
2022/12/13 10:56:21;;;;;;;8.60;5.57;;;2.00;99.90;;;;;;5099702;28;20119;-74
2022/12/13 10:58:50;;;;;;;6.30;4.05;;;2.00;99.90;;;;;;5071824;28;20053;-74
2022/12/13 11:01:20;;;;;;;11.30;5.60;;;2.10;99.90;;;;;;5059238;28;20083;-75
2022/12/13 11:04:19;;;;;;;7.07;4.93;;;2.20;99.90;;;;;;5059073;28;20031;-74
2022/12/13 11:06:47;;;;;;;8.25;4.80;;;2.30;99.90;;;;;;5059029;28;20025;-73
2022/12/13 11:09:14;;;;;;;9.32;4.70;;;2.20;99.90;;;;;;5057623;28;20039;-72
2022/12/13 11:11:40;;;;;;;9.20;5.25;;;2.30;99.90;;;;;;5056962;28;20492;-69
2022/12/13 11:14:15;;;;;;;10.93;5.32;;;2.30;99.90;;;;;;5058436;28;20025;-69
2022/12/13 11:16:40;;;;;;;9.20;4.68;;;2.40;99.90;;;;;;5057052;28;20032;-72
2022/12/13 11:19:22;;;;;;;10.10;5.25;;;2.50;99.90;;;;;;5057860;28;20021;-71
2022/12/13 11:21:50;;;;;;;9.30;4.45;;;2.50;99.90;;;;;;5049836;28;20093;-72
2022/12/13 11:24:27;;;;;;;8.18;4.90;;;2.60;99.90;;;;;;5057615;28;20489;-70
2022/12/13 11:26:57;;;;;;;9.48;5.43;;;2.70;99.90;;;;;;5057341;28;20096;-74
2022/12/13 11:29:23;;;;;;;7.20;4.57;;;2.80;99.90;;;;;;5057496;28;20104;-74
2022/12/13 11:32:03;;;;;;;8.88;5.35;;;2.80;99.90;;;;;;5057297;28;20049;-74
2022/12/13 11:34:55;;;;;;;7.90;4.50;;;2.90;99.90;;;;;;5055801;28;20025;-71
2022/12/13 11:37:36;;;;;;;11.75;5.85;;;2.90;99.90;;;;;;5056201;28;20430;-76
2022/12/13 11:40:02;;;;;;;8.40;4.78;;;3.00;99.90;;;;;;5054676;28;20029;-77
2022/12/13 11:42:40;;;;;;;8.90;5.15;;;3.00;99.90;;;;;;5054588;28;20033;-76
2022/12/13 11:45:19;;;;;;;8.98;4.47;;;3.00;99.90;;;;;;5056720;28;20114;-78
2022/12/13 11:48:08;;;;;;;8.23;4.57;;;3.10;99.90;;;;;;5057315;28;20044;-74
2022/12/13 11:50:41;;;;;;;7.90;4.65;;;3.10;99.90;;;;;;5040690;28;20504;-75
2022/12/13 11:53:18;;;;;;;6.70;4.50;;;3.20;99.90;;;;;;5056639;28;20099;-76
2022/12/13 11:55:52;;;;;;;9.60;5.05;;;3.20;99.90;;;;;;5056165;28;20033;-78
2022/12/13 11:58:47;;;;;;;8.23;4.57;;;3.30;99.90;;;;;;5062638;28;20025;-77
2022/12/13 12:01:20;;;;;;;8.02;4.80;;;3.30;99.90;;;;;;5093325;28;20043;-73
2022/12/13 12:03:48;;;;;;;;;;;3.40;99.90;;;;;;5098385;28;20048;-75
2022/12/13 12:06:21;;;;;;;7.60;4.32;;;3.40;99.90;;;;;;5097570;28;19908;-81
2022/12/13 12:09:00;;;;;;;9.10;4.78;;;3.40;99.90;;;;;;5097396;28;20046;-80
2022/12/13 12:11:34;;;;;;;8.35;5.30;;;3.40;99.90;;;;;;5096755;28;20043;-77
2022/12/13 12:14:25;;;;;;;8.18;4.50;;;3.40;99.90;;;;;;5097030;28;20415;-74
2022/12/13 12:16:54;;;;;;;7.35;4.30;;;3.40;99.90;;;;;;5029887;28;20036;-78
2022/12/13 12:19:33;;;;;;;6.75;4.22;;;3.40;99.90;;;;;;5098474;28;20024;-78
2022/12/13 12:22:12;;;;;;;7.63;4.50;;;3.50;99.90;;;;;;5098730;28;20369;-79
2022/12/13 12:24:56;;;;;;;8.23;4.82;;;3.50;99.90;;;;;;5100469;28;20061;-80
2022/12/13 12:27:42;;;;;;;7.97;4.25;;;3.50;99.90;;;;;;5080692;28;20020;-82
2022/12/13 12:30:30;;;;;;;8.40;4.95;;;3.60;99.90;;;;;;5080348;28;20085;-80
2022/12/13 12:32:59;;;;;;;7.50;4.00;;;3.60;99.90;;;;;;5079950;28;20017;-80
2022/12/13 12:35:30;;;;;;;7.75;4.32;;;3.60;99.90;;;;;;5080258;28;20120;-80
2022/12/13 12:38:15;;;;;;;8.35;5.50;;;3.60;99.90;;;;;;5080125;28;20016;-79
2022/12/13 12:40:43;;;;;;;8.32;4.60;;;3.70;99.90;;;;;;5080572;28;20028;-81
2022/12/13 12:43:25;;;;;;;10.52;5.65;;;3.70;99.90;;;;;;5079650;28;20065;-79
2022/12/13 12:46:25;;;;;;;6.53;4.35;;;3.60;99.90;;;;;;5093002;28;20544;-78
2022/12/13 12:49:00;;;;;;;9.13;5.13;;;3.60;99.90;;;;;;5093619;28;20012;-79
2022/12/13 12:51:26;;;;;;;7.53;4.75;;;3.60;99.90;;;;;;5079506;28;20020;-81
2022/12/13 12:54:07;;;;;;;8.30;4.93;;;3.60;99.90;;;;;;5079305;28;20050;-80
2022/12/13 12:56:50;;;;;;;7.70;4.40;;;3.70;99.90;;;;;;5079696;28;20541;-80
2022/12/13 12:59:25;;;;;;;8.52;4.97;;;3.70;99.90;;;;;;5091721;28;20575;-79
2022/12/13 13:02:15;;;;;;;6.65;4.00;;;3.70;99.90;;;;;;5078999;28;20028;-81
2022/12/13 13:04:49;;;;;;;7.82;4.10;;;3.80;99.90;;;;;;5078921;28;20046;-83
2022/12/13 13:07:30;;;;;;;10.80;5.78;;;3.80;99.90;;;;;;5097717;28;20058;-77
2022/12/13 13:09:58;;;;;;;8.13;5.07;;;3.80;99.90;;;;;;5085694;28;20028;-78
2022/12/13 13:12:25;;;;;;;7.53;5.00;;;3.90;99.90;;;;;;5077370;28;20024;-78
2022/12/13 13:14:51;;;;;;;9.88;5.50;;;3.90;99.90;;;;;;5079644;28;20024;-75